createdAt,value
2023-03-21T00:02:14.750Z,18.26
2023-03-21T00:04:52.322Z,18.38
2023-03-21T00:07:30.427Z,18.35
2023-03-21T00:10:16.641Z,18.39
2023-03-21T00:12:58.940Z,18.39
2023-03-21T00:15:39.275Z,18.32
2023-03-21T00:18:16.314Z,18.15
2023-03-21T00:21:39.270Z,18.00
2023-03-21T00:24:06.991Z,18.15
2023-03-21T00:26:42.620Z,18.03
2023-03-21T00:29:17.892Z,18.13
2023-03-21T00:31:54.000Z,18.14
2023-03-21T00:34:31.752Z,18.12
2023-03-21T00:37:26.184Z,18.10
2023-03-21T00:39:58.916Z,18.12
2023-03-21T00:42:31.627Z,18.13
2023-03-21T00:45:22.452Z,18.09
2023-03-21T00:47:55.076Z,17.94
2023-03-21T00:50:23.820Z,17.99
2023-03-21T00:53:04.955Z,18.01
2023-03-21T00:55:36.209Z,18.08
2023-03-21T00:58:04.027Z,18.08
2023-03-21T01:00:44.463Z,18.10
2023-03-21T01:03:25.225Z,18.11
2023-03-21T01:06:04.830Z,17.93
2023-03-21T01:08:54.517Z,18.04
2023-03-21T01:11:29.044Z,18.13
2023-03-21T01:14:18.564Z,18.08
2023-03-21T01:16:51.867Z,17.99
2023-03-21T01:19:30.840Z,17.87
2023-03-21T01:22:03.031Z,17.88
2023-03-21T01:24:40.585Z,17.96
2023-03-21T01:27:16.609Z,17.90
2023-03-21T01:29:43.929Z,17.87
2023-03-21T01:32:17.200Z,17.89
2023-03-21T01:34:56.219Z,17.97
2023-03-21T01:37:27.144Z,17.93
2023-03-21T01:39:54.427Z,18.00
2023-03-21T01:42:22.438Z,18.10
2023-03-21T01:45:00.646Z,17.97
2023-03-21T01:47:36.813Z,18.03
2023-03-21T01:50:29.213Z,18.02
2023-03-21T01:53:24.970Z,18.18
2023-03-21T01:55:54.448Z,18.03
2023-03-21T01:58:45.780Z,18.04
2023-03-21T02:01:42.515Z,17.94
2023-03-21T02:04:20.065Z,17.94
2023-03-21T02:07:18.760Z,17.93
2023-03-21T02:09:55.936Z,17.96
2023-03-21T02:12:29.787Z,17.88
2023-03-21T02:15:01.308Z,18.02
2023-03-21T02:18:11.639Z,18.04
2023-03-21T02:21:34.653Z,17.83
2023-03-21T02:24:33.096Z,17.77
2023-03-21T02:27:06.917Z,17.81
2023-03-21T02:30:02.385Z,17.84
2023-03-21T02:33:02.650Z,17.72
2023-03-21T02:35:47.275Z,17.73
2023-03-21T02:38:43.745Z,17.50
2023-03-21T02:41:29.878Z,17.54
2023-03-21T02:44:20.038Z,17.57
2023-03-21T02:47:06.484Z,17.49
2023-03-21T02:49:53.448Z,17.41
2023-03-21T02:52:38.689Z,17.51
2023-03-21T02:55:18.565Z,17.51
2023-03-21T02:58:12.766Z,17.52
2023-03-21T03:00:59.467Z,17.43
2023-03-21T03:03:38.351Z,17.43
2023-03-21T03:06:46.832Z,17.32
2023-03-21T03:09:38.705Z,17.19
2023-03-21T03:12:44.684Z,17.18
2023-03-21T03:15:38.128Z,17.35
2023-03-21T03:18:51.575Z,17.39
2023-03-21T03:21:34.735Z,17.40
2023-03-21T03:24:24.638Z,17.41
2023-03-21T03:27:14.688Z,17.26
2023-03-21T03:29:56.276Z,17.21
2023-03-21T03:33:02.107Z,17.22
2023-03-21T03:35:42.909Z,17.12
2023-03-21T03:38:17.549Z,17.18
2023-03-21T03:40:55.062Z,17.16
2023-03-21T03:43:48.362Z,17.27
2023-03-21T03:46:24.558Z,17.20
2023-03-21T03:49:06.864Z,17.00
2023-03-21T03:52:16.627Z,16.89
2023-03-21T03:54:55.172Z,17.01
2023-03-21T03:57:30.370Z,16.91
2023-03-21T04:00:13.965Z,16.85
2023-03-21T04:02:50.847Z,17.03
2023-03-21T04:05:29.546Z,17.06
2023-03-21T04:07:57.630Z,16.99
2023-03-21T04:10:38.884Z,16.99
2023-03-21T04:13:16.305Z,17.01
2023-03-21T04:16:11.859Z,17.13
2023-03-21T04:18:52.960Z,17.10
2023-03-21T04:21:34.767Z,17.09
2023-03-21T04:24:10.492Z,17.12
2023-03-21T04:26:39.632Z,17.19
2023-03-21T04:29:49.195Z,17.06
2023-03-21T04:32:49.227Z,17.06
2023-03-21T04:35:27.379Z,17.05
2023-03-21T04:37:56.220Z,17.16
2023-03-21T04:40:29.600Z,17.16
2023-03-21T04:43:04.133Z,17.11
2023-03-21T04:45:37.609Z,17.02
2023-03-21T04:48:10.329Z,16.97
2023-03-21T04:50:49.262Z,16.90
2023-03-21T04:53:24.985Z,16.95
2023-03-21T04:55:58.015Z,16.86
2023-03-21T04:58:33.347Z,16.92
2023-03-21T05:01:09.695Z,16.82
2023-03-21T05:03:41.006Z,16.82
2023-03-21T05:06:11.123Z,16.74
2023-03-21T05:08:45.765Z,16.75
2023-03-21T05:11:15.629Z,16.72
2023-03-21T05:13:44.624Z,16.75
2023-03-21T05:16:12.967Z,16.81
2023-03-21T05:18:42.969Z,16.77
2023-03-21T05:21:29.665Z,16.83
2023-03-21T05:24:01.587Z,16.60
2023-03-21T05:26:33.762Z,16.54
2023-03-21T05:29:17.451Z,16.53
2023-03-21T05:31:53.797Z,16.56
2023-03-21T05:34:30.468Z,16.59
2023-03-21T05:37:03.426Z,16.58
2023-03-21T05:39:54.735Z,16.47
2023-03-21T05:42:35.874Z,16.57
2023-03-21T05:45:16.110Z,16.61
2023-03-21T05:47:48.369Z,16.34
2023-03-21T05:50:19.466Z,16.60
2023-03-21T05:53:11.907Z,16.51
2023-03-21T05:55:41.630Z,16.52
2023-03-21T06:01:20.322Z,16.56
2023-03-21T06:04:00.542Z,16.54
2023-03-21T06:06:46.414Z,16.61
2023-03-21T06:09:23.503Z,16.42
2023-03-21T06:12:06.980Z,16.56
2023-03-21T06:15:09.126Z,16.45
2023-03-21T06:17:48.129Z,16.42
2023-03-21T06:20:28.032Z,16.51
2023-03-21T06:23:11.163Z,16.34
2023-03-21T06:25:38.682Z,16.42
2023-03-21T06:28:07.272Z,16.45
2023-03-21T06:30:39.275Z,16.33
2023-03-21T06:33:27.666Z,16.45
2023-03-21T06:35:56.749Z,16.49
2023-03-21T06:38:25.810Z,16.40
2023-03-21T06:40:54.377Z,16.47
2023-03-21T06:43:29.695Z,16.53
2023-03-21T06:45:57.092Z,16.61
2023-03-21T06:48:27.569Z,16.59
2023-03-21T06:50:56.666Z,16.75
2023-03-21T06:53:30.017Z,16.80
2023-03-21T06:56:21.515Z,16.78
2023-03-21T06:58:50.038Z,16.87
2023-03-21T07:01:43.318Z,16.95
2023-03-21T07:04:11.044Z,16.92
2023-03-21T07:06:39.401Z,17.07
2023-03-21T07:09:07.235Z,17.09
2023-03-21T07:11:37.153Z,17.04
2023-03-21T07:14:07.674Z,17.03
2023-03-21T07:16:35.109Z,17.16
2023-03-21T07:19:02.289Z,17.21
2023-03-21T07:21:29.436Z,17.28
2023-03-21T07:23:56.707Z,17.11
2023-03-21T07:26:26.917Z,17.29
2023-03-21T07:28:55.828Z,17.43
2023-03-21T07:31:26.149Z,17.37
2023-03-21T07:33:53.981Z,17.21
2023-03-21T07:36:21.543Z,17.50
2023-03-21T07:38:48.663Z,17.40
2023-03-21T07:41:20.890Z,17.37
2023-03-21T07:43:50.809Z,17.30
2023-03-21T07:46:19.022Z,17.38
2023-03-21T07:48:48.877Z,17.72
2023-03-21T07:51:15.997Z,17.81
2023-03-21T07:53:43.988Z,17.85
2023-03-21T07:56:11.193Z,17.92
2023-03-21T07:58:38.234Z,17.93
2023-03-21T08:01:05.530Z,18.12
2023-03-21T08:03:33.958Z,18.02
2023-03-21T08:06:01.753Z,17.94
2023-03-21T08:08:28.919Z,18.33
2023-03-21T08:10:56.255Z,18.07
2023-03-21T08:13:23.462Z,18.14
2023-03-21T08:15:50.643Z,18.45
2023-03-21T08:18:17.674Z,18.22
2023-03-21T08:20:45.127Z,18.45
2023-03-21T08:23:13.992Z,18.83
2023-03-21T08:25:41.254Z,19.00
2023-03-21T08:28:10.764Z,19.22
2023-03-21T08:30:38.311Z,19.24
2023-03-21T08:33:05.407Z,19.64
2023-03-21T08:35:32.647Z,19.65
2023-03-21T08:38:02.545Z,19.58
2023-03-21T08:40:29.856Z,19.69
2023-03-21T08:42:56.866Z,20.12
2023-03-21T08:45:24.724Z,20.09
2023-03-21T08:47:51.900Z,19.99
2023-03-21T08:50:25.080Z,20.37
2023-03-21T08:52:52.819Z,20.57
2023-03-21T08:55:20.294Z,20.68
2023-03-21T08:57:47.341Z,20.82
2023-03-21T09:00:18.678Z,20.85
2023-03-21T09:02:47.127Z,21.10
2023-03-21T09:05:14.798Z,20.58
2023-03-21T09:07:42.044Z,21.14
2023-03-21T09:10:23.077Z,21.25
2023-03-21T09:12:53.113Z,21.46
2023-03-21T09:15:22.123Z,21.50
2023-03-21T09:17:53.302Z,21.30
2023-03-21T09:20:26.530Z,21.67
2023-03-21T09:22:54.605Z,21.90
2023-03-21T09:25:26.405Z,21.76
2023-03-21T09:27:54.360Z,21.77
2023-03-21T09:30:26.334Z,21.54
2023-03-21T09:32:55.969Z,21.70
2023-03-21T09:35:27.820Z,21.92
2023-03-21T09:37:57.623Z,22.07
2023-03-21T09:40:52.981Z,22.03
2023-03-21T09:43:41.702Z,22.12
2023-03-21T09:46:23.721Z,22.22
2023-03-21T09:48:59.956Z,22.04
2023-03-21T09:51:32.209Z,22.20
2023-03-21T09:54:07.526Z,22.48
2023-03-21T09:56:39.291Z,22.55
2023-03-21T09:59:09.313Z,22.74
2023-03-21T10:01:42.230Z,22.28
2023-03-21T10:04:16.917Z,22.61
2023-03-21T10:06:46.027Z,22.99
2023-03-21T10:09:24.858Z,22.62
2023-03-21T10:11:52.980Z,22.89
2023-03-21T10:14:31.538Z,22.31
2023-03-21T10:17:17.868Z,22.48
2023-03-21T10:19:47.265Z,22.55
2023-03-21T10:22:15.977Z,22.73
2023-03-21T10:24:43.192Z,22.58
2023-03-21T10:27:13.468Z,22.70
2023-03-21T10:29:48.124Z,23.26
2023-03-21T10:32:17.858Z,23.29
2023-03-21T10:34:51.993Z,23.00
2023-03-21T10:37:19.552Z,22.69
2023-03-21T10:39:51.518Z,21.82
2023-03-21T10:42:24.013Z,21.32
2023-03-21T10:44:57.717Z,21.35
2023-03-21T10:47:26.675Z,21.74
2023-03-21T10:50:07.306Z,21.66
2023-03-21T10:52:37.710Z,21.26
2023-03-21T10:55:18.961Z,21.64
2023-03-21T10:57:47.687Z,21.50
2023-03-21T11:00:24.530Z,21.50
2023-03-21T11:02:54.151Z,21.37
2023-03-21T11:05:37.017Z,21.29
2023-03-21T11:08:10.699Z,21.30
2023-03-21T11:10:50.330Z,21.32
2023-03-21T11:13:33.146Z,20.79
2023-03-21T11:16:25.075Z,21.40
2023-03-21T11:18:56.993Z,21.62
2023-03-21T11:21:29.824Z,21.67
2023-03-21T11:23:57.601Z,21.18
2023-03-21T11:26:32.493Z,21.13
2023-03-21T11:28:59.961Z,21.21
2023-03-21T11:31:44.206Z,21.01
2023-03-21T11:34:50.158Z,20.83
2023-03-21T11:37:46.621Z,21.01
2023-03-21T11:40:13.742Z,20.89
2023-03-21T11:42:44.098Z,21.32
2023-03-21T11:45:17.990Z,20.95
2023-03-21T11:47:47.406Z,21.13
2023-03-21T11:50:19.292Z,20.96
2023-03-21T11:53:03.608Z,20.76
2023-03-21T11:55:46.503Z,20.55
2023-03-21T11:58:36.399Z,20.80
2023-03-21T12:01:42.355Z,20.52
2023-03-21T12:04:39.748Z,21.07
2023-03-21T12:07:26.587Z,21.44
2023-03-21T12:10:26.160Z,21.95
2023-03-21T12:13:14.737Z,21.85
2023-03-21T12:15:55.450Z,22.22
2023-03-21T12:18:46.290Z,21.93
2023-03-21T12:21:19.494Z,22.19
2023-03-21T12:23:58.987Z,22.69
2023-03-21T12:26:31.539Z,22.82
2023-03-21T12:29:13.174Z,22.77
2023-03-21T12:31:43.413Z,22.64
2023-03-21T12:35:09.502Z,22.96
2023-03-21T12:38:16.297Z,23.30
2023-03-21T12:40:58.747Z,23.83
2023-03-21T12:43:47.930Z,23.64
2023-03-21T12:46:27.091Z,23.68
2023-03-21T12:49:21.449Z,23.48
2023-03-21T12:51:52.181Z,23.57
2023-03-21T12:54:32.471Z,23.69
2023-03-21T12:57:12.185Z,24.25
2023-03-21T12:59:49.691Z,24.14
2023-03-21T13:02:31.619Z,24.30
2023-03-21T13:05:18.098Z,24.10
2023-03-21T13:07:52.704Z,23.63
2023-03-21T13:10:21.942Z,23.60
2023-03-21T13:13:01.023Z,23.54
2023-03-21T13:15:43.124Z,23.84
2023-03-21T13:18:38.968Z,23.76
2023-03-21T13:21:16.902Z,22.30
2023-03-21T13:24:17.554Z,22.32
2023-03-21T13:27:01.255Z,22.11
2023-03-21T13:29:33.372Z,22.08
2023-03-21T13:32:23.782Z,22.66
2023-03-21T13:35:00.277Z,22.59
2023-03-21T13:37:34.305Z,22.56
2023-03-21T13:40:10.890Z,22.16
2023-03-21T13:42:48.682Z,22.26
2023-03-21T13:45:27.710Z,22.56
2023-03-21T13:48:04.546Z,23.00
2023-03-21T13:51:03.225Z,23.39
2023-03-21T13:53:44.564Z,23.22
2023-03-21T13:56:17.697Z,22.82
2023-03-21T13:58:44.705Z,22.52
2023-03-21T14:01:27.344Z,22.46
2023-03-21T14:04:19.467Z,23.03
2023-03-21T14:06:59.710Z,22.31
2023-03-21T14:09:35.664Z,22.30
2023-03-21T14:12:07.897Z,23.03
2023-03-21T14:14:42.724Z,22.94
2023-03-21T14:17:23.300Z,22.51
2023-03-21T14:20:37.013Z,21.92
2023-03-21T14:23:08.308Z,21.65
2023-03-21T14:25:46.810Z,21.72
2023-03-21T14:28:25.439Z,21.77
2023-03-21T14:31:01.878Z,21.49
2023-03-21T14:33:44.259Z,21.42
2023-03-21T14:36:15.829Z,21.26
2023-03-21T14:38:45.627Z,20.94
2023-03-21T14:41:25.272Z,21.03
2023-03-21T14:44:06.982Z,21.23
2023-03-21T14:46:34.162Z,21.05
2023-03-21T14:49:35.295Z,21.06
2023-03-21T14:52:10.824Z,21.29
2023-03-21T14:54:47.171Z,20.72
2023-03-21T14:57:20.014Z,21.08
2023-03-21T14:59:50.952Z,21.44
2023-03-21T15:02:24.323Z,21.33
2023-03-21T15:05:06.505Z,21.03
2023-03-21T15:07:36.468Z,20.95
2023-03-21T15:10:18.242Z,21.21
2023-03-21T15:12:59.219Z,21.35
2023-03-21T15:15:28.848Z,21.40
2023-03-21T15:18:06.373Z,20.94
2023-03-21T15:20:39.809Z,21.14
2023-03-21T15:23:10.811Z,21.21
2023-03-21T15:25:39.578Z,21.06
2023-03-21T15:28:07.186Z,20.83
2023-03-21T15:30:35.382Z,21.05
2023-03-21T15:33:13.560Z,20.99
2023-03-21T15:35:46.243Z,21.30
2023-03-21T15:38:49.247Z,21.02
2023-03-21T15:41:19.450Z,20.74
2023-03-21T15:44:01.944Z,20.36
2023-03-21T15:46:42.249Z,20.41
2023-03-21T15:49:13.322Z,20.20
2023-03-21T15:51:48.354Z,19.94
2023-03-21T15:54:41.638Z,19.90
2023-03-21T15:57:25.535Z,20.06
2023-03-21T15:59:56.825Z,20.03
2023-03-21T16:02:30.855Z,20.06
2023-03-21T16:05:24.507Z,19.62
2023-03-21T16:07:52.415Z,19.59
2023-03-21T16:10:38.318Z,19.53
2023-03-21T16:13:06.988Z,19.36
2023-03-21T16:15:34.224Z,19.48
2023-03-21T16:18:08.518Z,19.61
2023-03-21T16:20:42.728Z,19.52
2023-03-21T16:23:16.215Z,19.61
2023-03-21T16:25:43.987Z,19.51
2023-03-21T16:28:16.273Z,19.47
2023-03-21T16:30:44.013Z,19.49
2023-03-21T16:33:12.550Z,19.73
2023-03-21T16:35:40.672Z,19.71
2023-03-21T16:38:07.864Z,19.86
2023-03-21T16:40:38.293Z,20.03
2023-03-21T16:43:06.053Z,19.79
2023-03-21T16:45:33.400Z,19.95
2023-03-21T16:48:00.872Z,19.97
2023-03-21T16:50:37.237Z,19.06
2023-03-21T16:53:06.850Z,19.24
2023-03-21T16:55:38.235Z,19.46
2023-03-21T16:58:06.726Z,19.65
2023-03-21T17:00:38.309Z,19.29
2023-03-21T17:03:19.339Z,19.73
2023-03-21T17:05:49.363Z,19.40
2023-03-21T17:08:24.305Z,19.19
2023-03-21T17:10:59.254Z,19.20
2023-03-21T17:13:26.552Z,19.29
2023-03-21T17:16:01.070Z,19.18
2023-03-21T17:18:31.123Z,19.50
2023-03-21T17:21:18.428Z,19.45
2023-03-21T17:23:49.529Z,19.71
2023-03-21T17:26:24.257Z,18.98
2023-03-21T17:28:54.178Z,19.64
2023-03-21T17:31:24.123Z,19.48
2023-03-21T17:34:06.835Z,19.50
2023-03-21T17:36:53.484Z,19.37
2023-03-21T17:39:32.263Z,19.44
2023-03-21T17:41:59.622Z,19.24
2023-03-21T17:44:40.433Z,19.28
2023-03-21T17:47:07.780Z,19.25
2023-03-21T17:49:34.790Z,18.96
2023-03-21T17:52:07.334Z,19.25
2023-03-21T17:54:34.412Z,19.16
2023-03-21T17:57:01.503Z,19.28
2023-03-21T17:59:31.074Z,19.04
2023-03-21T18:01:58.378Z,18.95
2023-03-21T18:04:28.731Z,19.21
2023-03-21T18:07:01.798Z,19.02
2023-03-21T18:09:35.042Z,18.98
2023-03-21T18:12:11.614Z,18.68
2023-03-21T18:14:42.545Z,18.85
2023-03-21T18:17:19.392Z,19.04
2023-03-21T18:19:47.921Z,19.16
2023-03-21T18:22:14.999Z,19.06
2023-03-21T18:24:42.405Z,19.06
2023-03-21T18:27:10.170Z,18.94
2023-03-21T18:30:22.890Z,18.74
2023-03-21T18:32:40.308Z,18.94
2023-03-21T18:35:08.228Z,18.74
2023-03-21T18:37:35.580Z,18.80
2023-03-21T18:40:05.524Z,18.80
2023-03-21T18:42:36.906Z,19.02
2023-03-21T18:45:08.114Z,18.73
2023-03-21T18:47:35.247Z,18.98
2023-03-21T18:50:16.708Z,19.03
2023-03-21T18:52:47.543Z,18.59
2023-03-21T18:55:14.983Z,18.98
2023-03-21T18:57:43.344Z,18.90
2023-03-21T19:00:17.373Z,18.70
2023-03-21T19:02:48.484Z,18.83
2023-03-21T19:05:19.668Z,18.74
2023-03-21T19:07:48.116Z,18.72
2023-03-21T19:10:19.565Z,18.59
2023-03-21T19:12:54.925Z,18.50
2023-03-21T19:15:33.084Z,18.39
2023-03-21T19:20:56.460Z,18.17
2023-03-21T19:23:23.597Z,18.12
2023-03-21T19:25:51.603Z,17.91
2023-03-21T19:28:19.859Z,17.66
2023-03-21T19:30:50.050Z,17.90
2023-03-21T19:33:20.242Z,18.25
2023-03-21T19:35:48.991Z,18.19
2023-03-21T19:38:19.425Z,18.56
2023-03-21T19:40:46.957Z,18.40
2023-03-21T19:43:32.262Z,17.80
2023-03-21T19:46:03.356Z,17.91
2023-03-21T19:48:31.010Z,17.82
2023-03-21T19:51:26.789Z,18.08
2023-03-21T19:53:52.717Z,18.07
2023-03-21T19:56:27.320Z,17.86
2023-03-21T19:58:57.168Z,18.04
2023-03-21T20:01:25.372Z,18.03
2023-03-21T20:03:52.852Z,18.02
2023-03-21T20:06:22.494Z,17.87
2023-03-21T20:09:34.170Z,17.86
2023-03-21T20:11:46.735Z,18.01
2023-03-21T20:14:20.303Z,18.20
2023-03-21T20:16:49.789Z,18.20
2023-03-21T20:19:17.517Z,18.08
2023-03-21T20:21:52.312Z,17.81
2023-03-21T20:24:22.948Z,18.04
2023-03-21T20:26:53.776Z,18.04
2023-03-21T20:32:08.740Z,18.07
2023-03-21T20:34:37.055Z,18.11
2023-03-21T20:37:06.170Z,18.08
2023-03-21T20:39:37.070Z,18.17
2023-03-21T20:42:05.376Z,18.19
2023-03-21T20:44:57.749Z,18.06
2023-03-21T20:47:25.754Z,18.28
2023-03-21T20:49:57.448Z,18.00
2023-03-21T20:52:57.442Z,17.85
2023-03-21T20:55:24.611Z,17.47
2023-03-21T20:57:54.972Z,17.58
2023-03-21T21:00:22.509Z,17.86
2023-03-21T21:02:50.444Z,17.88
2023-03-21T21:05:35.878Z,17.87
2023-03-21T21:08:06.734Z,17.76
2023-03-21T21:11:00.516Z,17.50
2023-03-21T21:13:26.542Z,17.74
2023-03-21T21:15:54.547Z,17.57
2023-03-21T21:18:21.985Z,17.75
2023-03-21T21:20:56.787Z,17.49
2023-03-21T21:23:25.562Z,17.75
2023-03-21T21:25:54.586Z,17.96
2023-03-21T21:28:23.494Z,18.00
2023-03-21T21:30:56.147Z,18.11
2023-03-21T21:33:23.583Z,17.88
2023-03-21T21:35:56.593Z,17.86
2023-03-21T21:38:24.033Z,18.02
2023-03-21T21:40:54.026Z,18.12
2023-03-21T21:43:21.757Z,17.94
2023-03-21T21:45:52.066Z,17.94
2023-03-21T21:48:19.343Z,18.00
2023-03-21T21:50:48.972Z,18.15
2023-03-21T21:53:29.469Z,18.15
2023-03-21T21:56:02.116Z,18.25
2023-03-21T21:58:29.969Z,18.36
2023-03-21T22:01:05.477Z,18.45
2023-03-21T22:03:44.290Z,18.52
2023-03-21T22:06:11.783Z,18.53
2023-03-21T22:08:39.441Z,18.65
2023-03-21T22:11:06.872Z,18.67
2023-03-21T22:13:36.609Z,18.67
2023-03-21T22:16:06.692Z,18.69
2023-03-21T22:18:39.211Z,18.70
2023-03-21T22:21:07.480Z,18.73
2023-03-21T22:23:34.854Z,18.71
2023-03-21T22:26:02.233Z,18.68
2023-03-21T22:28:29.257Z,18.74
2023-03-21T22:30:57.597Z,18.78
2023-03-21T22:33:27.306Z,18.75
2023-03-21T22:35:56.759Z,18.75
2023-03-21T22:38:28.179Z,18.76
2023-03-21T22:40:59.199Z,18.72
2023-03-21T22:43:30.111Z,18.71
2023-03-21T22:46:00.232Z,18.69
2023-03-21T22:48:30.299Z,18.71
2023-03-21T22:50:59.113Z,18.72
2023-03-21T22:53:26.442Z,18.71
2023-03-21T22:55:54.285Z,18.71
2023-03-21T22:58:26.598Z,18.70
2023-03-21T23:00:56.765Z,18.68
2023-03-21T23:03:23.948Z,18.70
2023-03-21T23:05:51.200Z,18.70
2023-03-21T23:08:21.931Z,18.65
2023-03-21T23:10:49.056Z,18.67
2023-03-21T23:13:16.067Z,18.65
2023-03-21T23:15:43.616Z,18.63
2023-03-21T23:18:11.143Z,18.58
2023-03-21T23:20:42.189Z,18.58
2023-03-21T23:23:12.336Z,18.57
2023-03-21T23:25:42.032Z,18.54
2023-03-21T23:28:12.769Z,18.59
2023-03-21T23:30:40.321Z,18.61
2023-03-21T23:33:07.768Z,18.59
2023-03-21T23:35:38.522Z,18.55
2023-03-21T23:38:06.144Z,18.54
2023-03-21T23:40:33.196Z,18.56
2023-03-21T23:43:03.290Z,18.54
2023-03-21T23:45:33.325Z,18.49
2023-03-21T23:48:01.077Z,18.52
2023-03-21T23:50:33.841Z,18.52
2023-03-21T23:53:01.073Z,18.48
2023-03-21T23:55:31.899Z,18.45
2023-03-21T23:57:59.682Z,18.45
